Time;durP1;ratioP1;P1;durP2;ratioP2;P2;SDS_P1;SDS_P2;PMS_P1;PMS_P2;Temp;Humidity;BMP_temperature;BMP_pressure;BME280_temperature;BME280_humidity;BME280_pressure;Samples;Min_cycle;Max_cycle;Signal;HPM_P1;HPM_P2
2023/07/05 00:02:57;;;;;;;5.43;3.35;;;20.90;64.50;;;;;;10291490;28;20030;-58
2023/07/05 00:07:58;;;;;;;6.55;3.63;;;20.90;64.00;;;;;;10291034;28;20557;-58
2023/07/05 00:13:01;;;;;;;6.15;3.45;;;20.90;64.10;;;;;;10291072;28;20429;-58
2023/07/05 00:18:03;;;;;;;5.57;3.33;;;20.90;64.10;;;;;;10318138;28;20042;-57
2023/07/05 00:23:05;;;;;;;3.97;3.17;;;20.90;64.20;;;;;;10331014;28;20437;-58
2023/07/05 00:28:05;;;;;;;5.20;3.60;;;20.90;64.20;;;;;;10330791;28;20026;-56
2023/07/05 00:33:06;;;;;;;4.82;3.83;;;20.90;64.20;;;;;;10317313;28;20102;-56
2023/07/05 00:38:06;;;;;;;4.45;3.40;;;20.90;64.20;;;;;;10298214;28;20121;-57
2023/07/05 00:43:09;;;;;;;4.95;3.50;;;20.90;64.20;;;;;;10310594;28;20030;-56
2023/07/05 00:48:14;;;;;;;4.32;3.28;;;20.90;64.30;;;;;;10293077;28;20345;-57
2023/07/05 00:53:16;;;;;;;5.43;3.42;;;20.90;65.00;;;;;;10289491;28;20030;-58
2023/07/05 00:58:18;;;;;;;5.43;4.20;;;20.90;64.30;;;;;;10288421;28;20077;-57
2023/07/05 01:03:22;;;;;;;5.57;3.67;;;20.80;64.30;;;;;;10288796;28;20015;-57
2023/07/05 01:08:23;;;;;;;6.32;4.05;;;20.90;64.30;;;;;;10288047;28;20042;-58
2023/07/05 01:13:38;;;;;;;5.70;4.45;;;20.90;64.30;;;;;;10288843;28;20026;-57
2023/07/05 01:18:53;;;;;;;5.93;4.10;;;20.90;64.40;;;;;;10301270;28;20034;-56
2023/07/05 01:24:19;;;;;;;5.32;3.45;;;20.90;65.20;;;;;;10287180;28;20038;-58
2023/07/05 01:29:49;;;;;;;5.85;4.40;;;20.80;64.60;;;;;;10286913;28;20034;-58
2023/07/05 01:35:14;;;;;;;6.30;4.07;;;20.90;64.70;;;;;;10305898;28;20062;-58
2023/07/05 01:40:21;;;;;;;7.85;4.00;;;20.80;64.60;;;;;;10321747;28;21011;-58
2023/07/05 01:46:06;;;;;;;5.93;3.92;;;20.90;64.80;;;;;;10287904;28;20031;-56
2023/07/05 01:51:39;;;;;;;4.55;3.33;;;20.80;64.60;;;;;;10318820;28;20025;-55
2023/07/05 01:57:06;;;;;;;5.90;3.53;;;20.80;64.60;;;;;;10325706;28;20081;-57
2023/07/05 02:02:10;;;;;;;3.92;2.80;;;20.80;64.80;;;;;;10327058;28;20117;-57
2023/07/05 02:07:11;;;;;;;11.02;3.63;;;20.80;64.80;;;;;;10325700;28;20058;-56
2023/07/05 02:12:12;;;;;;;4.50;3.38;;;20.80;64.70;;;;;;10326479;28;20022;-57
2023/07/05 02:17:13;;;;;;;4.78;3.38;;;20.80;65.00;;;;;;10326625;28;20056;-58
2023/07/05 02:22:14;;;;;;;4.90;3.53;;;20.80;65.30;;;;;;10326451;28;20489;-58
2023/07/05 02:27:15;;;;;;;4.90;2.95;;;20.80;65.20;;;;;;10315710;28;20031;-56
2023/07/05 02:32:16;;;;;;;4.10;3.22;;;20.80;65.20;;;;;;10286159;28;20560;-57
2023/07/05 02:37:17;;;;;;;4.72;3.08;;;20.80;65.40;;;;;;10298209;28;20036;-58
2023/07/05 02:42:17;;;;;;;14.27;3.00;;;20.80;65.20;;;;;;10305416;28;20465;-57
2023/07/05 02:47:19;;;;;;;5.03;2.80;;;20.80;65.20;;;;;;10285415;28;20101;-54
2023/07/05 02:52:20;;;;;;;5.25;3.22;;;20.80;65.30;;;;;;10285076;28;20030;-57
2023/07/05 02:57:21;;;;;;;4.32;2.63;;;20.80;65.40;;;;;;10284733;28;20113;-57
2023/07/05 03:02:21;;;;;;;4.50;3.03;;;20.80;65.20;;;;;;10283457;28;20101;-58
2023/07/05 03:07:22;;;;;;;4.50;3.30;;;20.80;65.10;;;;;;10284025;28;20047;-58
2023/07/05 03:12:23;;;;;;;3.83;2.50;;;20.80;65.00;;;;;;10284037;28;20027;-58
2023/07/05 03:17:23;;;;;;;5.75;3.13;;;20.70;64.90;;;;;;10296544;28;20054;-57
2023/07/05 03:22:26;;;;;;;3.75;2.70;;;20.70;64.90;;;;;;10279515;28;20086;-57
2023/07/05 03:27:28;;;;;;;4.13;2.70;;;20.70;64.60;;;;;;10292809;28;20023;-58
2023/07/05 03:32:29;;;;;;;5.25;2.80;;;20.70;64.60;;;;;;10314000;28;20105;-54
2023/07/05 03:37:30;;;;;;;4.80;2.33;;;20.80;64.80;;;;;;10318211;28;20099;-58
2023/07/05 03:42:30;;;;;;;4.00;2.75;;;20.80;64.80;;;;;;10318680;28;20499;-57
2023/07/05 03:47:31;;;;;;;5.30;2.58;;;20.80;65.00;;;;;;10318093;28;20158;-57
2023/07/05 03:52:32;;;;;;;4.90;2.42;;;20.80;65.20;;;;;;10318797;28;20057;-56
2023/07/05 03:57:32;;;;;;;5.82;2.67;;;20.90;65.00;;;;;;10320072;28;20154;-58
2023/07/05 04:02:33;;;;;;;7.28;3.30;;;20.80;64.80;;;;;;10312776;28;20466;-58
2023/07/05 04:07:34;;;;;;;3.88;2.35;;;20.90;64.70;;;;;;10296876;28;20047;-58
2023/07/05 04:12:34;;;;;;;4.25;2.72;;;20.80;64.30;;;;;;10282973;28;20019;-58
2023/07/05 04:17:35;;;;;;;4.47;2.90;;;20.80;64.20;;;;;;10282926;28;20798;-57
2023/07/05 04:22:39;;;;;;;3.33;2.30;;;20.70;64.00;;;;;;10282851;28;20105;-56
2023/07/05 04:27:40;;;;;;;4.45;2.83;;;20.70;64.00;;;;;;10282807;28;20034;-57
2023/07/05 04:32:41;;;;;;;4.18;2.60;;;20.70;64.00;;;;;;10311311;28;20493;-58
2023/07/05 04:37:41;;;;;;;4.38;2.63;;;20.70;63.90;;;;;;10301569;28;20030;-57
2023/07/05 04:42:42;;;;;;;4.53;2.63;;;20.70;63.90;;;;;;10311205;28;20101;-55
2023/07/05 04:47:44;;;;;;;3.65;2.17;;;20.70;63.80;;;;;;10290154;28;20066;-58
2023/07/05 04:52:45;;;;;;;4.03;3.08;;;20.70;63.60;;;;;;10303055;28;20031;-57
2023/07/05 04:57:46;;;;;;;4.35;2.45;;;20.70;63.60;;;;;;10289770;28;20070;-58
2023/07/05 05:02:46;;;;;;;4.75;3.25;;;20.70;63.50;;;;;;10289362;28;20109;-60
2023/07/05 05:07:47;;;;;;;14.60;3.83;;;20.70;63.40;;;;;;10288817;28;20158;-57
2023/07/05 05:12:47;;;;;;;7.80;2.88;;;20.70;63.50;;;;;;10320710;28;20061;-57
2023/07/05 05:17:49;;;;;;;10.15;3.20;;;20.70;63.30;;;;;;10329186;28;20034;-58
2023/07/05 05:22:49;;;;;;;7.93;3.00;;;20.80;63.80;;;;;;10329176;28;20021;-58
2023/07/05 05:27:50;;;;;;;7.72;2.80;;;20.90;63.60;;;;;;10328950;28;20054;-58
2023/07/05 05:32:51;;;;;;;6.68;2.75;;;20.90;63.80;;;;;;10328518;28;20010;-56
2023/07/05 05:37:52;;;;;;;9.07;3.50;;;20.90;63.60;;;;;;10324486;28;20030;-57
2023/07/05 05:42:52;;;;;;;10.15;3.80;;;21.00;63.70;;;;;;10308988;28;20110;-57
2023/07/05 05:47:53;;;;;;;10.52;3.80;;;21.00;63.70;;;;;;10287596;28;20439;-57
2023/07/05 05:52:54;;;;;;;18.50;4.43;;;20.90;63.50;;;;;;10286295;28;20035;-57
2023/07/05 05:57:55;;;;;;;13.73;3.67;;;21.00;63.60;;;;;;10304960;28;20141;-57
2023/07/05 06:02:57;;;;;;;29.27;4.57;;;20.90;63.50;;;;;;10308068;28;20101;-58
2023/07/05 06:07:57;;;;;;;22.80;5.22;;;20.90;63.60;;;;;;10306405;28;20410;-58
2023/07/05 06:12:58;;;;;;;14.65;4.45;;;20.90;63.70;;;;;;10303446;28;20113;-59
2023/07/05 06:17:59;;;;;;;25.77;5.68;;;20.90;63.60;;;;;;10304056;28;20114;-59
2023/07/05 06:23:03;;;;;;;13.88;4.35;;;20.90;63.70;;;;;;10286684;28;20014;-60
2023/07/05 06:28:03;;;;;;;12.70;3.55;;;20.80;63.40;;;;;;10286401;28;20022;-58
2023/07/05 06:33:04;;;;;;;10.88;3.15;;;20.80;63.30;;;;;;10296139;28;20454;-59
2023/07/05 06:38:05;;;;;;;19.88;4.53;;;20.70;63.60;;;;;;10308451;28;20109;-57
2023/07/05 06:43:05;;;;;;;13.60;4.72;;;20.70;63.70;;;;;;10310571;28;20030;-57
2023/07/05 06:48:06;;;;;;;12.65;4.63;;;20.80;63.50;;;;;;10326154;28;20657;-56
2023/07/05 06:53:07;;;;;;;11.50;4.70;;;20.70;63.50;;;;;;10325788;28;20054;-55
2023/07/05 06:58:08;;;;;;;9.57;3.95;;;20.70;63.60;;;;;;10324974;28;20033;-57
2023/07/05 07:03:10;;;;;;;15.38;4.25;;;20.80;64.20;;;;;;10325120;28;20026;-56
2023/07/05 07:08:11;;;;;;;14.48;4.13;;;20.80;63.90;;;;;;10324800;28;20592;-57
2023/07/05 07:13:13;;;;;;;14.45;4.90;;;20.80;63.80;;;;;;10324830;28;20491;-57
2023/07/05 07:18:14;;;;;;;13.88;4.72;;;20.80;63.90;;;;;;10324564;28;20443;-57
2023/07/05 07:23:15;;;;;;;11.82;3.95;;;20.80;64.10;;;;;;10324694;28;20064;-56
2023/07/05 07:28:15;;;;;;;17.02;4.68;;;20.80;64.00;;;;;;10324652;28;20116;-57
2023/07/05 07:33:16;;;;;;;13.48;5.38;;;20.80;64.00;;;;;;10324165;28;20081;-57
2023/07/05 07:38:17;;;;;;;18.13;6.30;;;20.80;63.90;;;;;;10290462;28;20512;-56
2023/07/05 07:43:18;;;;;;;19.52;5.63;;;20.80;64.00;;;;;;10304258;28;20106;-57
2023/07/05 07:48:18;;;;;;;14.07;3.25;;;20.80;64.00;;;;;;10293662;28;20031;-57
2023/07/05 07:53:19;;;;;;;13.27;3.30;;;20.80;64.30;;;;;;10287205;28;20110;-57
2023/07/05 07:58:20;;;;;;;13.05;3.88;;;20.80;64.40;;;;;;10283912;28;20114;-57
2023/07/05 08:03:20;;;;;;;13.18;3.72;;;20.80;64.60;;;;;;10283175;28;20510;-56
2023/07/05 08:08:21;;;;;;;17.45;4.03;;;20.80;64.50;;;;;;10287251;28;20180;-59
2023/07/05 08:13:22;;;;;;;20.20;4.72;;;20.80;64.30;;;;;;10314435;28;20050;-57
2023/07/05 08:18:23;;;;;;;17.40;5.88;;;20.80;64.60;;;;;;10291810;28;20130;-56
2023/07/05 08:23:24;;;;;;;16.92;4.57;;;20.80;64.60;;;;;;10291579;28;20027;-57
2023/07/05 08:28:26;;;;;;;10.65;3.20;;;20.80;64.40;;;;;;10304274;28;20054;-56
2023/07/05 08:33:29;;;;;;;11.18;3.55;;;20.80;64.20;;;;;;10306800;28;20366;-55
2023/07/05 08:38:31;;;;;;;10.30;3.28;;;20.70;64.30;;;;;;10293983;28;20026;-56
2023/07/05 08:43:49;;;;;;;8.68;2.55;;;20.70;64.60;;;;;;10311256;28;20433;-56
2023/07/05 08:49:00;;;;;;;11.83;3.23;;;20.70;64.00;;;;;;10290103;28;20042;-56
2023/07/05 08:54:04;;;;;;;7.32;2.55;;;20.70;64.00;;;;;;10288635;28;20023;-55
2023/07/05 08:59:29;;;;;;;11.45;3.50;;;20.60;64.10;;;;;;10288763;28;20373;-56
2023/07/05 09:04:34;;;;;;;7.60;2.33;;;20.60;64.10;;;;;;10289298;28;20063;-57
2023/07/05 09:10:28;;;;;;;8.07;2.45;;;20.60;64.10;;;;;;10288180;28;20046;-56
2023/07/05 09:15:38;;;;;;;9.35;2.65;;;20.60;64.10;;;;;;10289394;28;20034;-55
2023/07/05 09:21:02;;;;;;;21.58;4.55;;;20.60;64.20;;;;;;10287078;28;20099;-56
2023/07/05 09:26:21;;;;;;;7.93;3.33;;;20.70;64.10;;;;;;10288755;28;20023;-56
2023/07/05 09:31:24;;;;;;;17.50;3.67;;;20.70;64.00;;;;;;10309148;28;20489;-57
2023/07/05 09:36:26;;;;;;;33.25;5.65;;;20.70;63.90;;;;;;10296943;28;20038;-57
2023/07/05 09:41:48;;;;;;;24.00;4.00;;;20.90;63.20;;;;;;10301379;28;20030;-56
2023/07/05 09:46:49;;;;;;;16.48;4.18;;;21.00;63.30;;;;;;10326872;28;20133;-54
2023/07/05 09:51:51;;;;;;;19.08;3.63;;;21.20;62.80;;;;;;10328102;28;20466;-56
2023/07/05 09:56:57;;;;;;;11.95;4.13;;;21.10;63.30;;;;;;10327366;28;20034;-56
2023/07/05 10:02:12;;;;;;;10.48;2.78;;;20.90;63.80;;;;;;10328036;28;20033;-55
2023/07/05 10:07:23;;;;;;;15.05;3.45;;;20.80;64.00;;;;;;10327157;28;20090;-56
2023/07/05 10:12:37;;;;;;;16.73;4.10;;;20.70;65.30;;;;;;10325960;28;20026;-57
2023/07/05 10:17:44;;;;;;;11.15;4.55;;;20.70;66.00;;;;;;10309167;28;20042;-55
2023/07/05 10:22:46;;;;;;;23.35;4.75;;;20.80;65.40;;;;;;10325534;28;20037;-56
2023/07/05 10:27:49;;;;;;;12.45;3.05;;;20.80;65.40;;;;;;10326862;28;20033;-56
2023/07/05 10:33:28;;;;;;;13.57;3.30;;;20.80;65.50;;;;;;10323922;28;20109;-54
2023/07/05 10:38:31;;;;;;;8.38;2.30;;;20.80;65.30;;;;;;10290512;28;20034;-55
2023/07/05 10:43:33;;;;;;;10.35;2.85;;;20.80;65.40;;;;;;10311142;28;20414;-55
2023/07/05 10:48:43;;;;;;;13.63;3.58;;;20.80;64.90;;;;;;10303691;28;20018;-56
2023/07/05 10:53:54;;;;;;;14.73;3.70;;;20.80;65.40;;;;;;10311950;28;20101;-55
2023/07/05 10:59:25;;;;;;;10.25;3.03;;;20.80;65.20;;;;;;10324090;28;20058;-56
2023/07/05 11:04:31;;;;;;;12.13;3.38;;;20.70;65.40;;;;;;10325049;28;20547;-56
2023/07/05 11:09:35;;;;;;;14.98;3.10;;;20.70;64.80;;;;;;10325473;28;20057;-54
2023/07/05 11:14:36;;;;;;;8.05;2.78;;;20.60;64.70;;;;;;10324676;28;20034;-54
2023/07/05 11:19:39;;;;;;;8.18;2.10;;;20.60;65.50;;;;;;10323789;28;20030;-54
2023/07/05 11:24:44;;;;;;;7.22;2.40;;;20.60;64.70;;;;;;10324704;28;20018;-56
2023/07/05 11:29:47;;;;;;;8.98;3.00;;;20.70;64.60;;;;;;10324526;28;20030;-56
2023/07/05 11:34:51;;;;;;;9.07;2.75;;;20.70;64.40;;;;;;10316340;28;21058;-57
2023/07/05 11:39:52;;;;;;;9.35;2.63;;;20.70;64.30;;;;;;10285878;28;20055;-56
2023/07/05 11:44:56;;;;;;;16.88;2.33;;;20.70;64.10;;;;;;10301939;28;20015;-55
2023/07/05 11:50:05;;;;;;;8.13;2.47;;;20.70;64.00;;;;;;10284057;28;20033;-56
2023/07/05 11:55:25;;;;;;;9.20;2.40;;;20.70;63.90;;;;;;10283743;28;20027;-55
2023/07/05 12:00:53;;;;;;;5.60;1.73;;;20.80;63.80;;;;;;10313655;28;20137;-56
2023/07/05 12:06:06;;;;;;;6.28;2.83;;;20.80;63.80;;;;;;10322458;28;20358;-56
2023/07/05 12:11:07;;;;;;;8.23;2.45;;;20.80;63.70;;;;;;10323864;28;20085;-56
2023/07/05 12:16:15;;;;;;;7.35;2.70;;;20.70;63.80;;;;;;10323627;28;20050;-56
2023/07/05 12:21:16;;;;;;;9.43;2.75;;;20.80;63.90;;;;;;10320219;28;20021;-55
2023/07/05 12:26:31;;;;;;;23.30;4.63;;;20.90;64.00;;;;;;10302969;28;20431;-55
2023/07/05 12:31:31;;;;;;;20.25;4.00;;;20.90;64.10;;;;;;10293709;28;20606;-57
2023/07/05 12:36:42;;;;;;;26.80;4.80;;;20.80;63.90;;;;;;10296282;28;20043;-56
2023/07/05 12:41:43;;;;;;;25.00;4.13;;;20.90;64.30;;;;;;10299788;28;20039;-55
2023/07/05 12:46:45;;;;;;;23.40;5.03;;;21.00;64.70;;;;;;10287173;28;20023;-54
2023/07/05 12:51:54;;;;;;;20.98;5.05;;;21.10;64.70;;;;;;10301575;28;20118;-57
2023/07/05 12:56:56;;;;;;;18.52;4.05;;;21.00;64.90;;;;;;10319419;28;20034;-57
2023/07/05 13:01:57;;;;;;;34.20;6.38;;;20.90;64.70;;;;;;10330173;28;20085;-55
2023/07/05 13:07:04;;;;;;;21.88;5.85;;;20.90;64.70;;;;;;10308376;28;20734;-59
2023/07/05 13:12:08;;;;;;;26.52;6.15;;;20.90;64.90;;;;;;10312734;28;20333;-56
2023/07/05 13:17:12;;;;;;;24.50;5.03;;;21.00;64.70;;;;;;10306738;28;20051;-55
2023/07/05 13:22:23;;;;;;;17.92;4.35;;;21.00;64.70;;;;;;10313357;28;20061;-57
2023/07/05 13:27:36;;;;;;;38.63;4.72;;;21.00;65.20;;;;;;10315538;28;20466;-55
2023/07/05 13:32:45;;;;;;;18.63;4.13;;;21.00;65.20;;;;;;10311431;28;20082;-55
2023/07/05 13:37:46;;;;;;;14.18;5.25;;;21.00;65.10;;;;;;10298652;28;20026;-55
2023/07/05 13:42:48;;;;;;;23.63;4.20;;;20.90;65.10;;;;;;10308156;28;20432;-54
2023/07/05 13:47:49;;;;;;;15.07;3.97;;;21.00;65.30;;;;;;10294244;28;20026;-56
2023/07/05 13:52:50;;;;;;;14.48;3.42;;;21.10;65.30;;;;;;10290424;28;20393;-54
2023/07/05 13:57:53;;;;;;;20.63;3.72;;;21.10;65.00;;;;;;10301778;28;20062;-55
2023/07/05 14:02:54;;;;;;;17.83;4.90;;;21.20;65.30;;;;;;10287058;28;20496;-55
2023/07/05 14:08:01;;;;;;;20.15;3.38;;;21.30;65.40;;;;;;10301304;28;20054;-56
2023/07/05 14:13:02;;;;;;;20.77;4.25;;;21.30;65.40;;;;;;10286461;28;20030;-56
2023/07/05 14:18:05;;;;;;;25.02;5.38;;;21.30;65.70;;;;;;10286461;28;20088;-56
2023/07/05 14:23:13;;;;;;;38.72;7.00;;;21.30;65.50;;;;;;10285915;28;20033;-55
2023/07/05 14:28:15;;;;;;;31.45;5.95;;;21.30;66.40;;;;;;10297207;28;20856;-56
2023/07/05 14:33:21;;;;;;;38.80;7.45;;;21.20;66.00;;;;;;10317074;28;20087;-55
2023/07/05 14:38:22;;;;;;;40.13;7.57;;;21.20;66.00;;;;;;10300312;28;20034;-56
2023/07/05 14:43:23;;;;;;;49.30;8.38;;;21.20;66.20;;;;;;10312511;28;20021;-56
2023/07/05 14:48:24;;;;;;;36.05;6.88;;;21.10;66.50;;;;;;10298282;28;20504;-58
2023/07/05 14:53:28;;;;;;;63.50;10.10;;;21.10;66.50;;;;;;10285092;28;20015;-57
2023/07/05 14:58:29;;;;;;;44.65;7.75;;;21.10;66.70;;;;;;10313020;28;20026;-56
2023/07/05 15:03:36;;;;;;;40.40;8.02;;;21.10;66.60;;;;;;10317949;28;20050;-55
2023/07/05 15:08:37;;;;;;;41.95;7.28;;;21.20;66.60;;;;;;10317558;28;20030;-58
2023/07/05 15:13:45;;;;;;;44.92;8.55;;;21.30;67.20;;;;;;10315170;28;20031;-59
2023/07/05 15:18:46;;;;;;;45.88;9.90;;;21.50;69.00;;;;;;10319697;28;20042;-58
2023/07/05 15:23:52;;;;;;;34.45;8.38;;;21.60;67.60;;;;;;10302490;28;20719;-56
2023/07/05 15:28:53;;;;;;;55.28;27.75;;;21.50;68.10;;;;;;10315664;28;20053;-57
2023/07/05 15:33:54;;;;;;;49.00;13.27;;;21.40;68.20;;;;;;10317478;28;20181;-57
2023/07/05 15:38:54;;;;;;;29.40;9.45;;;21.40;70.50;;;;;;10312850;28;20022;-57
2023/07/05 15:43:56;;;;;;;28.33;8.55;;;21.40;71.50;;;;;;10304943;28;20532;-57
2023/07/05 15:48:57;;;;;;;28.65;9.38;;;21.60;70.20;;;;;;10323885;28;20072;-56
2023/07/05 15:53:57;;;;;;;33.05;9.68;;;21.60;69.40;;;;;;10323984;28;20037;-56
2023/07/05 15:59:02;;;;;;;37.63;6.82;;;21.70;69.20;;;;;;10323327;28;20095;-57
2023/07/05 16:04:04;;;;;;;43.42;10.75;;;21.60;68.40;;;;;;10323057;28;20062;-56
2023/07/05 16:09:05;;;;;;;52.80;11.13;;;21.60;68.00;;;;;;10289747;28;20042;-56
2023/07/05 16:14:06;;;;;;;41.13;8.93;;;21.60;68.00;;;;;;10306145;28;20062;-58
2023/07/05 16:19:07;;;;;;;29.77;7.60;;;21.60;66.60;;;;;;10307377;28;20121;-58
2023/07/05 16:24:11;;;;;;;27.90;8.15;;;21.50;66.00;;;;;;10294907;28;20023;-56
2023/07/05 16:29:13;;;;;;;32.08;7.43;;;21.50;66.00;;;;;;10309069;28;20026;-56
2023/07/05 16:34:14;;;;;;;34.35;8.02;;;21.60;66.40;;;;;;10304346;28;20038;-56
2023/07/05 16:39:15;;;;;;;27.75;9.13;;;21.60;66.40;;;;;;10301642;28;20070;-58
2023/07/05 16:44:16;;;;;;;33.80;8.20;;;21.60;66.40;;;;;;10318216;28;20030;-58
2023/07/05 16:49:17;;;;;;;35.58;9.82;;;21.60;66.60;;;;;;10309932;28;20126;-57
2023/07/05 16:54:18;;;;;;;27.08;7.32;;;21.60;66.30;;;;;;10323771;28;20585;-58
2023/07/05 16:59:19;;;;;;;30.50;9.18;;;21.60;66.40;;;;;;10296012;28;20597;-55
2023/07/05 17:04:21;;;;;;;21.98;6.20;;;21.50;66.10;;;;;;10289125;28;20086;-57
2023/07/05 17:09:23;;;;;;;22.00;6.45;;;21.50;66.60;;;;;;10289486;28;20034;-57
2023/07/05 17:14:23;;;;;;;21.70;5.82;;;21.50;66.70;;;;;;10288995;28;20041;-55
2023/07/05 17:19:24;;;;;;;19.02;8.30;;;21.50;66.30;;;;;;10301877;28;20025;-55
2023/07/05 17:24:25;;;;;;;21.20;5.90;;;21.40;66.40;;;;;;10299791;28;20102;-57
2023/07/05 17:29:25;;;;;;;24.85;6.38;;;21.40;66.40;;;;;;10288011;28;20816;-54
2023/07/05 17:34:29;;;;;;;18.67;5.50;;;21.30;66.40;;;;;;10299903;28;20039;-56
2023/07/05 17:39:29;;;;;;;20.30;7.45;;;21.20;66.40;;;;;;10287241;28;20019;-56
2023/07/05 17:44:30;;;;;;;14.02;4.90;;;21.20;66.30;;;;;;10313733;28;20477;-55
2023/07/05 17:49:31;;;;;;;21.30;7.75;;;21.20;66.60;;;;;;10309991;28;20101;-57
2023/07/05 17:54:31;;;;;;;21.55;6.03;;;21.30;67.00;;;;;;10297747;28;20037;-55
2023/07/05 17:59:32;;;;;;;20.77;5.70;;;21.30;66.80;;;;;;10287405;28;20150;-58
2023/07/05 18:04:33;;;;;;;25.48;6.28;;;21.30;66.70;;;;;;10287138;28;20134;-57
2023/07/05 18:09:35;;;;;;;13.82;4.80;;;21.30;66.50;;;;;;10286785;28;20118;-57
2023/07/05 18:14:35;;;;;;;19.52;5.78;;;21.30;66.50;;;;;;10286552;28;20561;-57
2023/07/05 18:19:36;;;;;;;16.50;6.53;;;21.30;66.00;;;;;;10321747;28;20126;-57
2023/07/05 18:24:37;;;;;;;20.05;6.82;;;21.20;66.60;;;;;;10319158;28;20080;-56
2023/07/05 18:29:38;;;;;;;13.40;4.63;;;21.20;66.20;;;;;;10320848;28;20166;-57
2023/07/05 18:34:38;;;;;;;15.27;4.68;;;21.30;65.80;;;;;;10319709;28;20113;-56
2023/07/05 18:39:39;;;;;;;18.08;4.45;;;21.20;66.10;;;;;;10311215;28;20585;-58
2023/07/05 18:44:41;;;;;;;20.90;5.35;;;21.20;66.60;;;;;;10307434;28;20039;-56
2023/07/05 18:49:42;;;;;;;20.88;5.80;;;21.20;66.40;;;;;;10318088;28;20361;-57
2023/07/05 18:54:43;;;;;;;15.93;5.03;;;21.10;67.00;;;;;;10304926;28;20031;-58
2023/07/05 18:59:43;;;;;;;23.15;5.60;;;21.10;67.00;;;;;;10318263;28;20025;-55
2023/07/05 19:04:44;;;;;;;23.33;5.28;;;21.10;66.50;;;;;;10288493;28;20038;-57
2023/07/05 19:09:45;;;;;;;20.30;5.25;;;21.40;66.70;;;;;;10308458;28;20161;-56
2023/07/05 19:14:45;;;;;;;17.58;4.50;;;21.40;66.70;;;;;;10305329;28;20025;-57
2023/07/05 19:19:46;;;;;;;11.57;3.63;;;21.50;66.70;;;;;;10306835;28;20101;-57
2023/07/05 19:24:47;;;;;;;12.75;3.70;;;21.50;66.70;;;;;;10306064;28;20098;-58
2023/07/05 19:29:47;;;;;;;14.30;4.65;;;21.50;66.90;;;;;;10306497;28;20129;-57
2023/07/05 19:34:48;;;;;;;16.95;4.78;;;21.50;66.90;;;;;;10304957;28;20470;-58
2023/07/05 19:39:49;;;;;;;16.70;3.85;;;21.50;67.00;;;;;;10310346;28;20118;-56
2023/07/05 19:44:50;;;;;;;12.73;3.80;;;21.50;67.20;;;;;;10306523;28;20105;-56
2023/07/05 19:49:51;;;;;;;16.02;4.47;;;21.40;67.30;;;;;;10305837;28;20042;-57
2023/07/05 19:54:52;;;;;;;16.48;4.53;;;21.50;67.50;;;;;;10307401;28;20167;-58
2023/07/05 19:59:52;;;;;;;12.57;4.43;;;21.40;67.10;;;;;;10306522;28;20153;-55
2023/07/05 20:04:53;;;;;;;18.23;4.60;;;21.20;67.30;;;;;;10323442;28;20035;-58
2023/07/05 20:09:54;;;;;;;13.90;4.60;;;21.10;67.30;;;;;;10300027;28;20166;-57
2023/07/05 20:14:54;;;;;;;13.13;3.88;;;21.10;67.50;;;;;;10311589;28;20160;-58
2023/07/05 20:19:55;;;;;;;7.18;3.15;;;21.00;67.50;;;;;;10323417;28;20098;-57
2023/07/05 20:24:56;;;;;;;9.00;3.10;;;21.00;67.50;;;;;;10321935;28;20046;-58
2023/07/05 20:29:57;;;;;;;7.82;3.20;;;20.90;67.40;;;;;;10324487;28;20019;-58
2023/07/05 20:34:58;;;;;;;8.85;3.45;;;20.90;67.40;;;;;;10325412;28;20034;-58
2023/07/05 20:39:59;;;;;;;10.77;3.30;;;20.90;67.10;;;;;;10319363;28;20461;-58
2023/07/05 20:45:00;;;;;;;10.38;3.95;;;20.90;67.00;;;;;;10320723;28;20396;-56
2023/07/05 20:50:00;;;;;;;10.32;2.80;;;20.90;67.00;;;;;;10324057;28;20113;-57
2023/07/05 20:55:01;;;;;;;7.68;2.50;;;20.90;67.00;;;;;;10327203;28;20105;-57
2023/07/05 21:00:04;;;;;;;4.03;2.55;;;20.90;66.90;;;;;;10329842;28;20100;-56
2023/07/05 21:05:06;;;;;;;8.38;2.83;;;20.80;66.90;;;;;;10329321;28;20054;-57
2023/07/05 21:10:08;;;;;;;5.60;2.50;;;20.80;66.80;;;;;;10329411;28;20037;-57
2023/07/05 21:15:09;;;;;;;8.32;3.78;;;20.80;66.80;;;;;;10328196;28;20054;-58
2023/07/05 21:20:10;;;;;;;5.63;2.97;;;20.80;66.80;;;;;;10329204;28;20030;-56
2023/07/05 21:25:11;;;;;;;6.07;2.80;;;20.80;66.70;;;;;;10329417;28;20023;-57
2023/07/05 21:30:11;;;;;;;4.15;2.45;;;20.80;66.60;;;;;;10328928;28;20023;-57
2023/07/05 21:35:12;;;;;;;4.68;2.10;;;20.70;67.20;;;;;;10319832;28;20025;-58
2023/07/05 21:40:13;;;;;;;7.40;2.38;;;20.70;66.50;;;;;;10293178;28;20084;-56
2023/07/05 21:45:13;;;;;;;5.82;1.95;;;20.70;66.50;;;;;;10315148;28;20101;-57
2023/07/05 21:50:14;;;;;;;4.38;2.20;;;20.70;66.50;;;;;;10303270;28;20030;-57
2023/07/05 21:55:15;;;;;;;4.22;2.78;;;20.70;66.50;;;;;;10287697;28;20035;-58
2023/07/05 22:00:22;;;;;;;4.88;3.38;;;20.70;66.40;;;;;;10287539;28;20019;-58
2023/07/05 22:05:26;;;;;;;8.18;3.50;;;20.70;66.40;;;;;;10287095;28;20129;-58
2023/07/05 22:10:26;;;;;;;5.28;2.35;;;20.70;66.40;;;;;;10287076;28;20441;-58
2023/07/05 22:15:33;;;;;;;4.68;2.20;;;20.70;66.30;;;;;;10287768;28;20035;-58
2023/07/05 22:20:37;;;;;;;3.38;1.90;;;20.60;66.30;;;;;;10287490;28;20094;-58
2023/07/05 22:25:38;;;;;;;6.95;2.85;;;20.70;66.30;;;;;;10285404;28;20029;-58
2023/07/05 22:30:39;;;;;;;3.60;1.90;;;20.60;66.30;;;;;;10286761;28;20019;-58
2023/07/05 22:35:40;;;;;;;4.50;2.30;;;20.60;66.20;;;;;;10312455;28;20351;-57
2023/07/05 22:40:40;;;;;;;4.30;2.28;;;20.60;66.20;;;;;;10318092;28;20046;-58
2023/07/05 22:45:41;;;;;;;3.80;1.88;;;20.60;66.20;;;;;;10297842;28;20105;-58
2023/07/05 22:50:43;;;;;;;5.63;3.05;;;20.60;66.10;;;;;;10285592;28;20124;-57
2023/07/05 22:55:44;;;;;;;5.88;2.80;;;20.60;66.10;;;;;;10289968;28;20034;-58
2023/07/05 23:00:48;;;;;;;3.65;1.85;;;20.60;66.10;;;;;;10307013;28;20015;-55
2023/07/05 23:05:49;;;;;;;3.97;2.25;;;20.60;66.10;;;;;;10285084;28;20047;-58
2023/07/05 23:11:02;;;;;;;4.18;3.10;;;20.60;66.10;;;;;;10284874;28;20433;-58
2023/07/05 23:16:05;;;;;;;3.92;2.00;;;20.60;66.10;;;;;;10284857;28;20038;-57
2023/07/05 23:21:06;;;;;;;4.13;2.13;;;20.60;66.10;;;;;;10284609;28;20027;-57
2023/07/05 23:26:13;;;;;;;2.70;2.05;;;20.60;66.10;;;;;;10282876;28;20026;-58
2023/07/05 23:31:27;;;;;;;3.78;2.28;;;20.50;66.00;;;;;;10284400;28;20022;-58
2023/07/05 23:36:28;;;;;;;4.18;2.20;;;20.60;66.00;;;;;;10297406;28;20027;-57
2023/07/05 23:41:31;;;;;;;2.83;1.55;;;20.50;65.90;;;;;;10298267;28;20025;-58
2023/07/05 23:46:32;;;;;;;3.97;1.65;;;20.50;65.90;;;;;;10289676;28;20034;-57
2023/07/05 23:51:33;;;;;;;2.55;1.52;;;20.50;65.90;;;;;;10284229;28;20034;-58
2023/07/05 23:56:46;;;;;;;4.72;2.10;;;20.50;65.90;;;;;;10298415;28;20635;-58
